Time;durP1;ratioP1;P1;durP2;ratioP2;P2;SDS_P1;SDS_P2;PMS_P1;PMS_P2;Temp;Humidity;BMP_temperature;BMP_pressure;BME280_temperature;BME280_humidity;BME280_pressure;Samples;Min_cycle;Max_cycle;Signal;HPM_P1;HPM_P2
2022/01/09 00:00:00;;;;;;;2.43;2.07;;;;;;;;;;5058283;28;20405;-67
2022/01/09 00:02:26;;;;;;;2.53;2.13;;;;;;;;;;5057961;28;20259;-66
2022/01/09 00:04:52;;;;;;;2.40;2.20;;;;;;;;;;5056314;28;20221;-67
2022/01/09 00:07:18;;;;;;;3.00;2.50;;;;;;;;;;5058332;28;20178;-66
2022/01/09 00:09:44;;;;;;;2.30;2.10;;;;;;;;;;5057374;28;20174;-66
2022/01/09 00:12:10;;;;;;;3.27;2.40;;;;;;;;;;5057619;28;20250;-65
2022/01/09 00:14:36;;;;;;;2.20;2.00;;;;;;;;;;5057931;28;20281;-65
2022/01/09 00:17:02;;;;;;;3.03;2.30;;;;;;;;;;5056147;28;20217;-66
2022/01/09 00:19:28;;;;;;;2.40;2.13;;;;;;;;;;5057767;28;20181;-67
2022/01/09 00:21:54;;;;;;;2.30;2.10;;;;;;;;;;5057787;28;20183;-65
2022/01/09 00:24:20;;;;;;;3.10;2.27;;;;;;;;;;5057409;28;20216;-66
2022/01/09 00:26:46;;;;;;;3.43;2.33;;;;;;;;;;5057360;28;20239;-65
2022/01/09 00:29:12;;;;;;;2.60;2.00;;;;;;;;;;5056255;28;20186;-66
2022/01/09 00:31:38;;;;;;;2.67;2.47;;;;;;;;;;5055905;28;20182;-65
2022/01/09 00:34:04;;;;;;;2.20;2.00;;;;;;;;;;5057014;28;20226;-66
2022/01/09 00:36:33;;;;;;;2.70;2.10;;;;;;;;;;5056788;28;20419;-66
2022/01/09 00:38:59;;;;;;;2.10;1.83;;;;;;;;;;5056095;28;20271;-67
2022/01/09 00:41:25;;;;;;;1.80;1.70;;;;;;;;;;5056947;28;20635;-66
2022/01/09 00:43:51;;;;;;;2.10;1.90;;;;;;;;;;5056780;28;20210;-65
2022/01/09 00:46:17;;;;;;;2.20;2.00;;;;;;;;;;5057081;28;20174;-66
2022/01/09 00:48:43;;;;;;;2.43;2.23;;;;;;;;;;5057221;28;20236;-66
2022/01/09 00:51:09;;;;;;;2.43;2.10;;;;;;;;;;5057057;28;20174;-68
2022/01/09 00:53:36;;;;;;;2.50;2.30;;;;;;;;;;5055469;28;20202;-65
2022/01/09 00:56:02;;;;;;;2.30;2.10;;;;;;;;;;5055276;28;20278;-65
2022/01/09 00:58:28;;;;;;;2.57;2.23;;;;;;;;;;5056754;28;20214;-65
2022/01/09 01:00:54;;;;;;;2.67;2.20;;;;;;;;;;5055438;28;20555;-66
2022/01/09 01:03:20;;;;;;;2.70;2.17;;;;;;;;;;5056590;28;20332;-67
2022/01/09 01:05:46;;;;;;;2.10;1.90;;;;;;;;;;5056117;28;20178;-67
2022/01/09 01:08:12;;;;;;;2.40;2.20;;;;;;;;;;5055491;28;20666;-65
2022/01/09 01:10:38;;;;;;;3.07;2.37;;;;;;;;;;5056742;28;20178;-66
2022/01/09 01:13:04;;;;;;;3.73;2.40;;;;;;;;;;5056323;28;20218;-64
2022/01/09 01:15:30;;;;;;;4.93;3.10;;;;;;;;;;5055061;28;20178;-66
2022/01/09 01:17:56;;;;;;;5.00;2.70;;;;;;;;;;5056454;28;20205;-66
2022/01/09 01:20:23;;;;;;;2.60;2.40;;;;;;;;;;5054937;28;20182;-66
2022/01/09 01:22:52;;;;;;;7.07;4.87;;;;;;;;;;5056275;28;20194;-65
2022/01/09 01:25:21;;;;;;;4.13;2.60;;;;;;;;;;5056550;28;20183;-66
2022/01/09 01:27:47;;;;;;;4.73;2.70;;;;;;;;;;5054921;28;20265;-65
2022/01/09 01:30:14;;;;;;;3.33;2.87;;;;;;;;;;5054821;28;20208;-65
2022/01/09 01:32:40;;;;;;;5.13;3.33;;;;;;;;;;5055642;28;20210;-66
2022/01/09 01:35:06;;;;;;;5.17;3.60;;;;;;;;;;5056173;28;20186;-66
2022/01/09 01:37:32;;;;;;;7.60;4.73;;;;;;;;;;5056268;28;20260;-67
2022/01/09 01:39:58;;;;;;;8.37;5.53;;;;;;;;;;5055658;28;20183;-65
2022/01/09 01:42:24;;;;;;;6.90;5.23;;;;;;;;;;5055392;28;20182;-67
2022/01/09 01:44:51;;;;;;;8.53;5.40;;;;;;;;;;5053961;28;20202;-67
2022/01/09 01:47:19;;;;;;;9.33;5.50;;;;;;;;;;5055486;28;20265;-66
2022/01/09 01:49:45;;;;;;;9.87;6.10;;;;;;;;;;5055112;28;20182;-67
2022/01/09 01:52:11;;;;;;;13.03;7.47;;;;;;;;;;5054028;28;20197;-66
2022/01/09 01:54:39;;;;;;;10.00;7.50;;;;;;;;;;5053737;28;20203;-65
2022/01/09 01:57:05;;;;;;;9.23;6.60;;;;;;;;;;5055414;28;20224;-66
2022/01/09 01:59:31;;;;;;;5.43;4.57;;;;;;;;;;5055389;28;20626;-66
2022/01/09 02:01:58;;;;;;;6.93;5.40;;;;;;;;;;5055203;28;20262;-66
2022/01/09 02:04:24;;;;;;;6.27;5.27;;;;;;;;;;5056029;28;20205;-66
2022/01/09 02:06:51;;;;;;;9.63;5.50;;;;;;;;;;5053874;28;20189;-67
2022/01/09 02:09:17;;;;;;;6.57;5.17;;;;;;;;;;5055100;28;20182;-66
2022/01/09 02:11:45;;;;;;;4.97;4.10;;;;;;;;;;5055334;28;20232;-67
2022/01/09 02:14:11;;;;;;;4.50;3.50;;;;;;;;;;5054006;28;20206;-66
2022/01/09 02:16:41;;;;;;;5.03;3.47;;;;;;;;;;5054808;28;20190;-67
2022/01/09 02:19:08;;;;;;;3.10;2.80;;;;;;;;;;5054943;28;20189;-68
2022/01/09 02:21:34;;;;;;;2.83;2.40;;;;;;;;;;5053605;28;20639;-68
2022/01/09 02:24:00;;;;;;;3.30;2.80;;;;;;;;;;5055034;28;20202;-69
2022/01/09 02:26:26;;;;;;;3.50;3.20;;;;;;;;;;5053584;28;20178;-66
2022/01/09 02:28:53;;;;;;;3.20;2.93;;;;;;;;;;5053466;28;20708;-67
2022/01/09 02:31:19;;;;;;;4.77;4.00;;;;;;;;;;5055520;28;20170;-68
2022/01/09 02:33:45;;;;;;;4.73;3.60;;;;;;;;;;5053320;28;20250;-67
2022/01/09 02:36:11;;;;;;;3.57;3.27;;;;;;;;;;5054931;28;20178;-68
2022/01/09 02:38:37;;;;;;;3.97;3.10;;;;;;;;;;5053277;28;20182;-68
2022/01/09 02:41:03;;;;;;;2.97;2.77;;;;;;;;;;5052723;28;20273;-67
2022/01/09 02:43:29;;;;;;;6.03;3.07;;;;;;;;;;5052804;28;20678;-68
2022/01/09 02:46:07;;;;;;;4.13;2.77;;;;;;;;;;5053077;28;20188;-68
2022/01/09 02:48:36;;;;;;;4.30;2.50;;;;;;;;;;5053180;28;20642;-67
2022/01/09 02:51:10;;;;;;;5.20;2.23;;;;;;;;;;5054698;28;20206;-68
2022/01/09 02:53:38;;;;;;;5.60;2.23;;;;;;;;;;5053191;28;20251;-67
2022/01/09 02:56:05;;;;;;;4.10;1.87;;;;;;;;;;5053074;28;20205;-67
2022/01/09 02:58:32;;;;;;;3.20;1.70;;;;;;;;;;5054220;28;20182;-66
2022/01/09 03:00:58;;;;;;;6.43;1.70;;;;;;;;;;5052885;28;20182;-67
2022/01/09 03:03:24;;;;;;;4.70;1.87;;;;;;;;;;5052619;28;20218;-67
2022/01/09 03:05:50;;;;;;;6.43;2.07;;;;;;;;;;5054715;28;20185;-67
2022/01/09 03:08:16;;;;;;;3.40;1.60;;;;;;;;;;5054711;28;20178;-67
2022/01/09 03:10:42;;;;;;;5.37;1.90;;;;;;;;;;5054549;28;20178;-68
2022/01/09 03:13:08;;;;;;;2.17;1.37;;;;;;;;;;5053043;28;20248;-66
2022/01/09 03:15:34;;;;;;;9.60;2.07;;;;;;;;;;5054283;28;20256;-67
2022/01/09 03:18:00;;;;;;;8.93;1.53;;;;;;;;;;5054058;28;20175;-67
2022/01/09 03:20:27;;;;;;;5.40;1.47;;;;;;;;;;5072091;23;20230;-64
2022/01/09 03:22:54;;;;;;;5.77;2.07;;;;;;;;;;5064553;28;20183;-62
2022/01/09 03:25:21;;;;;;;5.73;1.93;;;;;;;;;;5065699;28;20221;-64
2022/01/09 03:27:49;;;;;;;5.50;1.77;;;;;;;;;;5036953;28;20615;-63
2022/01/09 03:30:15;;;;;;;8.27;2.47;;;;;;;;;;5034866;28;20198;-62
2022/01/09 03:32:42;;;;;;;6.57;2.37;;;;;;;;;;5034603;28;20650;-62
2022/01/09 03:35:10;;;;;;;7.00;2.50;;;;;;;;;;5033000;28;20240;-61
2022/01/09 03:37:36;;;;;;;6.03;2.57;;;;;;;;;;5034649;28;20219;-62
2022/01/09 03:40:03;;;;;;;9.43;3.67;;;;;;;;;;5034483;28;20210;-62
2022/01/09 03:42:29;;;;;;;16.70;3.67;;;;;;;;;;5034507;28;20189;-61
2022/01/09 03:44:55;;;;;;;20.63;3.67;;;;;;;;;;5033144;28;20667;-62
2022/01/09 03:47:21;;;;;;;31.67;4.67;;;;;;;;;;5037540;28;20201;-61
2022/01/09 03:49:50;;;;;;;32.47;5.33;;;;;;;;;;5036859;28;20342;-62
2022/01/09 03:52:16;;;;;;;19.53;4.50;;;;;;;;;;5038043;28;20177;-62
2022/01/09 03:54:42;;;;;;;26.87;4.30;;;;;;;;;;5044277;28;20206;-65
2022/01/09 03:57:08;;;;;;;20.60;4.07;;;;;;;;;;5047541;28;20186;-63
2022/01/09 03:59:34;;;;;;;22.10;5.33;;;;;;;;;;5048007;28;20202;-65
2022/01/09 04:02:00;;;;;;;20.73;3.83;;;;;;;;;;5042529;28;20183;-61
2022/01/09 04:04:26;;;;;;;18.83;3.17;;;;;;;;;;5037105;28;20207;-64
2022/01/09 04:06:52;;;;;;;15.67;3.63;;;;;;;;;;5037792;28;20693;-62
2022/01/09 04:09:20;;;;;;;15.27;3.57;;;;;;;;;;5037723;28;20217;-63
2022/01/09 04:11:50;;;;;;;20.27;4.37;;;;;;;;;;5038128;28;20233;-62
2022/01/09 04:14:16;;;;;;;20.70;3.73;;;;;;;;;;5040887;28;20655;-63
2022/01/09 04:16:42;;;;;;;27.80;4.50;;;;;;;;;;5046004;28;20194;-63
2022/01/09 04:19:13;;;;;;;17.83;5.00;;;;;;;;;;5047468;28;20681;-63
2022/01/09 04:21:41;;;;;;;27.83;4.47;;;;;;;;;;5045223;28;20179;-64
2022/01/09 04:24:07;;;;;;;21.67;5.83;;;;;;;;;;5046123;28;20218;-63
2022/01/09 04:26:33;;;;;;;20.17;4.67;;;;;;;;;;5037474;28;20631;-63
2022/01/09 04:28:59;;;;;;;26.30;6.07;;;;;;;;;;5035371;28;20651;-63
2022/01/09 04:31:24;;;;;;;23.83;4.97;;;;;;;;;;5036662;28;20182;-63
2022/01/09 04:33:50;;;;;;;24.37;5.53;;;;;;;;;;5037020;28;20183;-63
2022/01/09 04:36:16;;;;;;;36.10;6.23;;;;;;;;;;5036512;28;20179;-62
2022/01/09 04:38:42;;;;;;;20.87;6.17;;;;;;;;;;5034835;28;20219;-63
2022/01/09 04:41:08;;;;;;;28.73;6.10;;;;;;;;;;5034989;28;20182;-63
2022/01/09 04:43:34;;;;;;;29.97;6.30;;;;;;;;;;5036087;28;20210;-63
2022/01/09 04:46:00;;;;;;;27.37;5.30;;;;;;;;;;5036666;28;20175;-63
2022/01/09 04:48:26;;;;;;;37.47;5.93;;;;;;;;;;5036520;28;20509;-63
2022/01/09 04:50:53;;;;;;;21.90;5.53;;;;;;;;;;5034803;28;20730;-62
2022/01/09 04:53:20;;;;;;;17.87;4.60;;;;;;;;;;5035013;28;20210;-63
2022/01/09 04:55:48;;;;;;;28.90;5.30;;;;;;;;;;5036407;28;20190;-65
2022/01/09 04:58:14;;;;;;;34.00;5.77;;;;;;;;;;5034557;28;20215;-63
2022/01/09 05:00:40;;;;;;;28.30;6.23;;;;;;;;;;5036203;28;20671;-63
2022/01/09 05:03:06;;;;;;;28.93;5.80;;;;;;;;;;5036385;28;20175;-65
2022/01/09 05:05:33;;;;;;;26.03;5.40;;;;;;;;;;5036293;28;20690;-64
2022/01/09 05:07:59;;;;;;;21.70;5.47;;;;;;;;;;5036181;28;20567;-61
2022/01/09 05:10:25;;;;;;;18.03;3.53;;;;;;;;;;5034386;28;20290;-64
2022/01/09 05:12:51;;;;;;;18.60;4.57;;;;;;;;;;5034652;28;20266;-61
2022/01/09 05:15:19;;;;;;;22.17;4.77;;;;;;;;;;5036165;28;20179;-63
2022/01/09 05:17:45;;;;;;;20.37;5.50;;;;;;;;;;5034536;28;20321;-63
2022/01/09 05:20:12;;;;;;;18.90;4.37;;;;;;;;;;5035386;28;20219;-64
2022/01/09 05:22:38;;;;;;;19.87;5.53;;;;;;;;;;5035951;28;20632;-63
2022/01/09 05:25:06;;;;;;;21.57;5.07;;;;;;;;;;5035615;28;20206;-63
2022/01/09 05:27:32;;;;;;;24.87;5.17;;;;;;;;;;5035427;28;20171;-64
2022/01/09 05:29:58;;;;;;;18.50;4.37;;;;;;;;;;5034033;28;20237;-64
2022/01/09 05:32:24;;;;;;;20.83;4.77;;;;;;;;;;5035122;28;20639;-63
2022/01/09 05:34:50;;;;;;;29.97;5.03;;;;;;;;;;5035398;28;20179;-64
2022/01/09 05:37:16;;;;;;;17.37;4.87;;;;;;;;;;5039308;28;20191;-63
2022/01/09 05:39:42;;;;;;;17.33;4.10;;;;;;;;;;5036381;28;20199;-63
2022/01/09 05:42:09;;;;;;;19.93;4.03;;;;;;;;;;5034137;28;20183;-63
2022/01/09 05:44:35;;;;;;;22.13;4.77;;;;;;;;;;5033982;28;20226;-64
2022/01/09 05:47:02;;;;;;;22.20;4.10;;;;;;;;;;5035312;28;20639;-63
2022/01/09 05:49:28;;;;;;;14.27;3.70;;;;;;;;;;5033927;28;20210;-63
2022/01/09 05:51:54;;;;;;;19.10;5.30;;;;;;;;;;5035124;28;20179;-63
2022/01/09 05:54:20;;;;;;;16.53;4.20;;;;;;;;;;5033846;28;20319;-64
2022/01/09 05:56:47;;;;;;;18.23;4.13;;;;;;;;;;5034913;28;20270;-64
2022/01/09 05:59:13;;;;;;;13.97;4.33;;;;;;;;;;5033500;28;20207;-63
2022/01/09 06:01:39;;;;;;;14.83;4.13;;;;;;;;;;5034719;28;20271;-63
2022/01/09 06:04:05;;;;;;;17.50;3.93;;;;;;;;;;5033504;28;20210;-64
2022/01/09 06:06:31;;;;;;;20.87;3.97;;;;;;;;;;5035275;28;20182;-63
2022/01/09 06:08:57;;;;;;;15.67;3.83;;;;;;;;;;5034320;28;20628;-63
2022/01/09 06:11:23;;;;;;;14.83;4.00;;;;;;;;;;5033535;28;20190;-64
2022/01/09 06:13:49;;;;;;;19.53;4.03;;;;;;;;;;5034557;28;20654;-63
2022/01/09 06:16:15;;;;;;;18.50;3.80;;;;;;;;;;5034436;28;20662;-64
2022/01/09 06:18:41;;;;;;;12.13;3.20;;;;;;;;;;5035342;28;20187;-62
2022/01/09 06:21:07;;;;;;;18.83;4.00;;;;;;;;;;5052646;28;20179;-64
2022/01/09 06:23:33;;;;;;;13.37;3.70;;;;;;;;;;5047126;28;20214;-63
2022/01/09 06:25:59;;;;;;;18.20;3.50;;;;;;;;;;5034427;28;20205;-63
2022/01/09 06:28:25;;;;;;;9.20;3.33;;;;;;;;;;5033323;28;20228;-63
2022/01/09 06:30:51;;;;;;;13.57;2.97;;;;;;;;;;5034594;28;20195;-64
2022/01/09 06:33:17;;;;;;;12.20;3.47;;;;;;;;;;5033964;28;20175;-63
2022/01/09 06:35:44;;;;;;;14.53;3.27;;;;;;;;;;5034666;28;20195;-62
2022/01/09 06:38:10;;;;;;;10.33;3.30;;;;;;;;;;5032844;28;20215;-63
2022/01/09 06:40:36;;;;;;;13.43;3.07;;;;;;;;;;5032887;28;20252;-63
2022/01/09 06:43:03;;;;;;;12.63;2.90;;;;;;;;;;5033144;28;20182;-63
2022/01/09 06:45:29;;;;;;;17.57;4.07;;;;;;;;;;5033073;28;20187;-64
2022/01/09 06:47:55;;;;;;;15.37;3.40;;;;;;;;;;5033190;28;20179;-63
2022/01/09 06:50:23;;;;;;;14.20;3.50;;;;;;;;;;5035154;28;20611;-62
2022/01/09 06:52:48;;;;;;;17.93;3.70;;;;;;;;;;5034600;28;20229;-63
2022/01/09 06:55:15;;;;;;;17.63;3.83;;;;;;;;;;5033727;28;20179;-63
2022/01/09 06:57:41;;;;;;;11.40;3.67;;;;;;;;;;5032672;28;20221;-63
2022/01/09 07:00:08;;;;;;;10.80;3.10;;;;;;;;;;5034184;28;20199;-63
2022/01/09 07:02:34;;;;;;;14.33;3.80;;;;;;;;;;5033825;28;20201;-63
2022/01/09 07:05:00;;;;;;;16.00;3.33;;;;;;;;;;5033711;28;20199;-62
2022/01/09 07:07:26;;;;;;;9.13;3.07;;;;;;;;;;5032829;28;20174;-63
2022/01/09 07:09:52;;;;;;;9.37;3.00;;;;;;;;;;5034029;28;20191;-63
2022/01/09 07:12:19;;;;;;;12.70;4.07;;;;;;;;;;5033487;28;20254;-63
2022/01/09 07:14:45;;;;;;;14.77;3.23;;;;;;;;;;5034126;28;20182;-62
2022/01/09 07:17:11;;;;;;;13.83;3.63;;;;;;;;;;5032660;28;20296;-62
2022/01/09 07:19:37;;;;;;;8.90;3.07;;;;;;;;;;5033338;28;20225;-63
2022/01/09 07:22:04;;;;;;;10.40;3.30;;;;;;;;;;5038125;28;20248;-63
2022/01/09 07:24:30;;;;;;;10.43;3.10;;;;;;;;;;5036510;28;20210;-62
2022/01/09 07:26:56;;;;;;;9.80;3.53;;;;;;;;;;5036499;28;20180;-62
2022/01/09 07:29:22;;;;;;;12.63;3.97;;;;;;;;;;5038533;28;20605;-63
2022/01/09 07:31:48;;;;;;;13.40;3.40;;;;;;;;;;5037718;28;20175;-63
2022/01/09 07:34:14;;;;;;;10.40;3.20;;;;;;;;;;5038186;28;20187;-63
2022/01/09 07:36:40;;;;;;;9.10;3.20;;;;;;;;;;5037763;28;20202;-62
2022/01/09 07:39:06;;;;;;;13.80;3.70;;;;;;;;;;5037968;28;20543;-63
2022/01/09 07:41:32;;;;;;;10.73;3.10;;;;;;;;;;5036069;28;20325;-63
2022/01/09 07:43:58;;;;;;;13.57;3.33;;;;;;;;;;5037779;28;20218;-63
2022/01/09 07:46:23;;;;;;;14.10;2.60;;;;;;;;;;5037061;28;20183;-62
2022/01/09 07:48:49;;;;;;;8.43;3.50;;;;;;;;;;5036941;28;20242;-63
2022/01/09 07:51:15;;;;;;;11.07;3.30;;;;;;;;;;5036797;28;20183;-62
2022/01/09 07:53:41;;;;;;;14.47;3.53;;;;;;;;;;5036906;28;20266;-63
2022/01/09 07:56:07;;;;;;;14.00;4.07;;;;;;;;;;5036949;28;20191;-63
2022/01/09 07:58:33;;;;;;;9.80;2.90;;;;;;;;;;5035737;28;20381;-62
2022/01/09 08:00:59;;;;;;;10.47;3.03;;;;;;;;;;5037199;28;20186;-63
2022/01/09 08:03:25;;;;;;;9.20;3.37;;;;;;;;;;5043332;28;20187;-63
2022/01/09 08:05:51;;;;;;;15.93;3.60;;;;;;;;;;5040068;28;20187;-61
2022/01/09 08:08:17;;;;;;;15.13;3.97;;;;;;;;;;5035571;28;20554;-63
2022/01/09 08:10:43;;;;;;;13.73;4.17;;;;;;;;;;5036699;28;20353;-63
2022/01/09 08:13:09;;;;;;;15.77;4.07;;;;;;;;;;5039350;28;20182;-63
2022/01/09 08:15:35;;;;;;;14.67;3.97;;;;;;;;;;5039360;28;20202;-63
2022/01/09 08:18:01;;;;;;;10.47;3.80;;;;;;;;;;5039034;28;20570;-63
2022/01/09 08:20:27;;;;;;;15.83;3.90;;;;;;;;;;5038282;28;20222;-63
2022/01/09 08:22:53;;;;;;;11.77;3.57;;;;;;;;;;5039485;28;20231;-63
2022/01/09 08:25:19;;;;;;;15.07;3.43;;;;;;;;;;5037613;28;20235;-63
2022/01/09 08:27:46;;;;;;;7.47;3.13;;;;;;;;;;5037004;28;20183;-63
2022/01/09 08:30:14;;;;;;;14.53;3.43;;;;;;;;;;5036300;28;20205;-62
2022/01/09 08:32:40;;;;;;;11.33;3.57;;;;;;;;;;5034170;28;20639;-61
2022/01/09 08:35:06;;;;;;;8.87;3.17;;;;;;;;;;5036524;28;20179;-63
2022/01/09 08:37:32;;;;;;;8.20;3.70;;;;;;;;;;5036995;28;20179;-62
2022/01/09 08:39:58;;;;;;;12.50;3.37;;;;;;;;;;5035178;28;20203;-63
2022/01/09 08:42:24;;;;;;;7.30;3.03;;;;;;;;;;5037387;28;20179;-63
2022/01/09 08:44:50;;;;;;;6.60;2.63;;;;;;;;;;5037497;28;20210;-62
2022/01/09 08:47:16;;;;;;;11.77;3.60;;;;;;;;;;5035696;28;20183;-63
2022/01/09 08:49:42;;;;;;;10.03;3.37;;;;;;;;;;5037491;28;20195;-62
2022/01/09 08:52:09;;;;;;;15.93;4.77;;;;;;;;;;5039046;28;20657;-63
2022/01/09 08:54:35;;;;;;;12.80;6.37;;;;;;;;;;5042188;28;20183;-64
2022/01/09 08:57:01;;;;;;;11.03;3.77;;;;;;;;;;5043909;28;20258;-63
2022/01/09 08:59:27;;;;;;;12.13;4.43;;;;;;;;;;5045699;28;20228;-61
2022/01/09 09:01:54;;;;;;;10.10;3.67;;;;;;;;;;5044088;28;20265;-62
2022/01/09 09:04:20;;;;;;;6.90;3.00;;;;;;;;;;5036326;28;20206;-62
2022/01/09 09:06:46;;;;;;;16.63;3.50;;;;;;;;;;5036673;28;20183;-61
2022/01/09 09:09:12;;;;;;;19.97;3.60;;;;;;;;;;5036491;28;20752;-62
2022/01/09 09:11:38;;;;;;;10.43;3.37;;;;;;;;;;5034962;28;20187;-62
2022/01/09 09:14:06;;;;;;;6.20;2.30;;;;;;;;;;5036335;28;20261;-62
2022/01/09 09:16:32;;;;;;;13.57;3.73;;;;;;;;;;5036462;28;20179;-64
2022/01/09 09:18:58;;;;;;;12.30;3.17;;;;;;;;;;5042003;28;20219;-62
2022/01/09 09:23:52;;;;;;;13.03;4.30;;;;;;;;;;5033948;28;20235;-65
2022/01/09 09:26:20;;;;;;;12.33;3.47;;;;;;;;;;5050156;28;20644;-65
2022/01/09 09:28:46;;;;;;;9.17;3.33;;;;;;;;;;5034647;28;20548;-64
2022/01/09 09:31:12;;;;;;;13.77;4.23;;;;;;;;;;5034673;28;20186;-65
2022/01/09 09:33:38;;;;;;;7.17;3.07;;;;;;;;;;5035153;28;20667;-64
2022/01/09 09:36:05;;;;;;;13.80;4.60;;;;;;;;;;5033397;28;20262;-65
2022/01/09 09:38:31;;;;;;;9.57;4.00;;;;;;;;;;5034484;28;20262;-65
2022/01/09 09:40:57;;;;;;;12.80;7.27;;;;;;;;;;5033413;28;20649;-64
2022/01/09 09:43:23;;;;;;;16.37;6.33;;;;;;;;;;5033710;28;20697;-64
2022/01/09 09:45:51;;;;;;;12.27;5.17;;;;;;;;;;5033150;28;20175;-65
2022/01/09 09:48:17;;;;;;;10.07;3.33;;;;;;;;;;5034799;28;20197;-64
2022/01/09 09:50:43;;;;;;;12.93;3.27;;;;;;;;;;5033184;28;20270;-64
2022/01/09 09:53:09;;;;;;;10.53;3.10;;;;;;;;;;5033025;28;20293;-64
2022/01/09 09:55:35;;;;;;;11.63;3.73;;;;;;;;;;5034231;28;20176;-63
2022/01/09 09:58:01;;;;;;;14.07;3.60;;;;;;;;;;5032892;28;20183;-65
2022/01/09 10:00:27;;;;;;;14.53;3.57;;;;;;;;;;5033384;28;20205;-64
2022/01/09 10:02:54;;;;;;;9.03;2.90;;;;;;;;;;5033911;28;20203;-64
2022/01/09 10:05:21;;;;;;;10.23;3.47;;;;;;;;;;5033842;28;20229;-63
2022/01/09 10:07:47;;;;;;;12.83;3.03;;;;;;;;;;5034215;28;20183;-66
2022/01/09 10:10:16;;;;;;;13.90;4.13;;;;;;;;;;5032493;28;20179;-66
2022/01/09 10:12:42;;;;;;;12.57;3.70;;;;;;;;;;5033772;28;20261;-66
2022/01/09 10:15:10;;;;;;;6.47;2.87;;;;;;;;;;5033896;28;20229;-66
2022/01/09 10:17:41;;;;;;;9.17;3.50;;;;;;;;;;5033872;28;20171;-66
2022/01/09 10:20:17;;;;;;;12.17;3.83;;;;;;;;;;5032499;28;20358;-66
2022/01/09 10:22:46;;;;;;;11.07;3.17;;;;;;;;;;5033398;28;20631;-66
2022/01/09 10:25:17;;;;;;;12.43;3.43;;;;;;;;;;5033706;28;20617;-66
2022/01/09 10:27:44;;;;;;;13.90;3.93;;;;;;;;;;5033854;28;20178;-66
2022/01/09 10:30:10;;;;;;;15.07;3.93;;;;;;;;;;5032104;28;20643;-66
2022/01/09 10:32:37;;;;;;;7.53;3.30;;;;;;;;;;5033381;28;20260;-66
2022/01/09 10:35:07;;;;;;;7.67;3.70;;;;;;;;;;5033590;28;20211;-66
2022/01/09 10:37:35;;;;;;;10.03;3.57;;;;;;;;;;5033390;28;20640;-66
2022/01/09 10:40:01;;;;;;;7.93;3.10;;;;;;;;;;5032054;28;20222;-66
2022/01/09 10:42:28;;;;;;;12.97;4.07;;;;;;;;;;5033145;28;20255;-66
2022/01/09 10:44:54;;;;;;;8.83;3.40;;;;;;;;;;5033270;28;20272;-66
2022/01/09 10:47:20;;;;;;;12.50;3.90;;;;;;;;;;5033561;28;20190;-66
2022/01/09 10:49:48;;;;;;;9.70;3.90;;;;;;;;;;5033587;28;20186;-66
2022/01/09 10:52:17;;;;;;;14.10;4.50;;;;;;;;;;5033620;28;20679;-66
2022/01/09 10:54:46;;;;;;;13.73;4.97;;;;;;;;;;5031868;28;20186;-66
2022/01/09 10:57:18;;;;;;;12.37;5.70;;;;;;;;;;5033162;28;20273;-66
2022/01/09 10:59:44;;;;;;;15.97;5.20;;;;;;;;;;5033464;28;20218;-66
2022/01/09 11:02:12;;;;;;;11.73;6.10;;;;;;;;;;5033010;28;20210;-66
2022/01/09 11:04:38;;;;;;;19.03;13.23;;;;;;;;;;5036033;28;20204;-66
2022/01/09 11:07:04;;;;;;;22.40;11.83;;;;;;;;;;5035001;28;20711;-66
2022/01/09 11:09:32;;;;;;;11.90;6.30;;;;;;;;;;5036398;28;20246;-66
2022/01/09 11:11:58;;;;;;;16.70;7.47;;;;;;;;;;5036662;28;20313;-65
2022/01/09 11:14:27;;;;;;;13.13;6.67;;;;;;;;;;5034660;28;20258;-66
2022/01/09 11:16:54;;;;;;;13.30;6.53;;;;;;;;;;5032345;28;20187;-66
2022/01/09 11:19:24;;;;;;;20.57;10.80;;;;;;;;;;5033218;28;20179;-66
2022/01/09 11:21:54;;;;;;;16.73;9.57;;;;;;;;;;5031446;28;20217;-66
2022/01/09 11:24:38;;;;;;;17.60;9.30;;;;;;;;;;5031875;28;20241;-66
2022/01/09 11:27:04;;;;;;;22.73;12.47;;;;;;;;;;5032833;28;20186;-66
2022/01/09 11:29:53;;;;;;;12.63;5.27;;;;;;;;;;5032779;28;20175;-66
2022/01/09 11:32:28;;;;;;;11.43;4.07;;;;;;;;;;5032808;28;20226;-66
2022/01/09 11:34:54;;;;;;;8.03;4.83;;;;;;;;;;5033019;28;20545;-66
2022/01/09 11:37:26;;;;;;;16.30;6.33;;;;;;;;;;5031385;28;20281;-66
2022/01/09 11:39:52;;;;;;;10.47;4.40;;;;;;;;;;5032744;28;20183;-65
2022/01/09 11:42:18;;;;;;;14.83;6.33;;;;;;;;;;5032741;28;20206;-66
2022/01/09 11:44:45;;;;;;;13.87;5.37;;;;;;;;;;5033154;28;20203;-66
2022/01/09 11:47:11;;;;;;;13.60;6.03;;;;;;;;;;5032677;28;20234;-66
2022/01/09 11:49:59;;;;;;;13.97;5.97;;;;;;;;;;5032861;28;20179;-66
2022/01/09 11:52:26;;;;;;;14.20;5.57;;;;;;;;;;5032450;28;20579;-66
2022/01/09 11:54:54;;;;;;;19.13;6.60;;;;;;;;;;5032637;28;20179;-66
2022/01/09 11:57:49;;;;;;;16.20;7.67;;;;;;;;;;5032578;28;20179;-66
2022/01/09 12:00:33;;;;;;;21.57;11.70;;;;;;;;;;5032613;28;20620;-66
2022/01/09 12:02:59;;;;;;;17.90;9.27;;;;;;;;;;5031090;28;20199;-66
2022/01/09 12:05:25;;;;;;;24.03;12.33;;;;;;;;;;5032450;28;20195;-66
2022/01/09 12:07:51;;;;;;;16.13;8.23;;;;;;;;;;5035083;28;20542;-66
2022/01/09 12:10:17;;;;;;;19.30;9.70;;;;;;;;;;5036283;28;20175;-66
2022/01/09 12:12:43;;;;;;;22.27;10.70;;;;;;;;;;5035900;28;20210;-66
2022/01/09 12:15:11;;;;;;;11.40;5.13;;;;;;;;;;5034644;28;20187;-66
2022/01/09 12:17:45;;;;;;;8.63;4.10;;;;;;;;;;5035995;28;20183;-66
2022/01/09 12:20:11;;;;;;;8.37;4.80;;;;;;;;;;5035983;28;20221;-65
2022/01/09 12:25:07;;;;;;;7.77;4.20;;;;;;;;;;5035988;28;20294;-65
2022/01/09 12:27:36;;;;;;;12.27;4.90;;;;;;;;;;5034510;28;20518;-66
2022/01/09 12:30:05;;;;;;;11.17;4.13;;;;;;;;;;5036020;28;20175;-66
2022/01/09 12:32:44;;;;;;;9.40;4.93;;;;;;;;;;5035622;28;20271;-66
2022/01/09 12:35:17;;;;;;;12.13;5.30;;;;;;;;;;5035529;28;20183;-65
2022/01/09 12:37:44;;;;;;;11.20;5.13;;;;;;;;;;5035571;28;20183;-66
2022/01/09 12:40:11;;;;;;;12.00;5.40;;;;;;;;;;5034310;28;20267;-65
2022/01/09 12:42:37;;;;;;;15.40;6.23;;;;;;;;;;5034080;28;20207;-66
2022/01/09 12:45:04;;;;;;;11.90;5.20;;;;;;;;;;5035342;28;20333;-66
2022/01/09 12:47:40;;;;;;;11.53;5.33;;;;;;;;;;5034072;28;20175;-65
2022/01/09 12:50:06;;;;;;;7.47;4.50;;;;;;;;;;5034588;28;20261;-66
2022/01/09 12:52:32;;;;;;;13.20;6.43;;;;;;;;;;5035166;28;20314;-65
2022/01/09 12:55:05;;;;;;;10.23;6.33;;;;;;;;;;5033906;28;20221;-66
2022/01/09 12:57:31;;;;;;;12.23;6.20;;;;;;;;;;5035139;28;20266;-65
2022/01/09 12:59:57;;;;;;;15.77;6.27;;;;;;;;;;5033842;28;20688;-65
2022/01/09 13:02:23;;;;;;;16.70;8.10;;;;;;;;;;5033814;28;20391;-65
2022/01/09 13:04:49;;;;;;;18.00;8.27;;;;;;;;;;5033735;28;20233;-65
2022/01/09 13:07:16;;;;;;;22.57;10.37;;;;;;;;;;5035632;28;20178;-66
2022/01/09 13:09:42;;;;;;;32.13;16.03;;;;;;;;;;5035375;28;20163;-65
2022/01/09 13:12:08;;;;;;;21.00;11.10;;;;;;;;;;5034775;28;20265;-66
2022/01/09 13:14:35;;;;;;;12.73;7.00;;;;;;;;;;5033553;28;20553;-66
2022/01/09 13:17:03;;;;;;;15.00;5.97;;;;;;;;;;5035124;28;20180;-65
2022/01/09 13:19:29;;;;;;;11.70;6.00;;;;;;;;;;5033545;28;20175;-65
2022/01/09 13:21:55;;;;;;;13.83;5.63;;;;;;;;;;5035056;28;20687;-65
2022/01/09 13:24:25;;;;;;;15.07;5.43;;;;;;;;;;5034873;28;20183;-64
2022/01/09 13:26:53;;;;;;;12.77;5.80;;;;;;;;;;5033424;28;20294;-66
2022/01/09 13:29:24;;;;;;;11.53;3.90;;;;;;;;;;5034626;28;20167;-66
2022/01/09 13:31:51;;;;;;;11.40;3.67;;;;;;;;;;5034621;28;20258;-65
2022/01/09 13:34:20;;;;;;;13.10;4.37;;;;;;;;;;5034661;28;20183;-65
2022/01/09 13:36:47;;;;;;;17.60;8.87;;;;;;;;;;5035158;28;20213;-65
2022/01/09 13:39:16;;;;;;;16.53;6.57;;;;;;;;;;5034397;28;20183;-63
2022/01/09 13:41:45;;;;;;;10.07;5.03;;;;;;;;;;5033005;28;20256;-64
2022/01/09 13:44:12;;;;;;;15.07;7.27;;;;;;;;;;5033014;28;20210;-64
2022/01/09 13:46:40;;;;;;;18.73;6.10;;;;;;;;;;5034502;28;20179;-64
2022/01/09 13:49:13;;;;;;;17.80;6.13;;;;;;;;;;5034288;28;20176;-64
2022/01/09 13:51:47;;;;;;;26.30;14.30;;;;;;;;;;5032911;28;20175;-64
2022/01/09 13:54:14;;;;;;;12.43;4.10;;;;;;;;;;5034112;28;20207;-64
2022/01/09 13:56:42;;;;;;;6.73;2.93;;;;;;;;;;5034239;28;20194;-64
2022/01/09 13:59:09;;;;;;;12.67;3.47;;;;;;;;;;5033966;28;20185;-64
2022/01/09 14:01:38;;;;;;;10.97;3.30;;;;;;;;;;5032650;28;20183;-64
2022/01/09 14:04:11;;;;;;;6.63;2.93;;;;;;;;;;5034088;28;20198;-64
2022/01/09 14:06:37;;;;;;;7.07;2.63;;;;;;;;;;5032890;28;20600;-63
2022/01/09 14:09:04;;;;;;;6.63;2.53;;;;;;;;;;5032816;28;20171;-63
2022/01/09 14:11:30;;;;;;;9.10;2.67;;;;;;;;;;5032889;28;20262;-65
2022/01/09 14:13:55;;;;;;;8.40;2.87;;;;;;;;;;5032645;28;20218;-66
2022/01/09 14:16:21;;;;;;;8.03;2.60;;;;;;;;;;5033862;28;20183;-66
2022/01/09 14:18:57;;;;;;;8.10;2.93;;;;;;;;;;5032375;28;20226;-66
2022/01/09 14:21:23;;;;;;;9.80;5.07;;;;;;;;;;5033684;28;20550;-66
2022/01/09 14:23:49;;;;;;;13.60;3.83;;;;;;;;;;5032118;28;20219;-66
2022/01/09 14:26:19;;;;;;;3.13;1.87;;;;;;;;;;5034197;28;20175;-67
2022/01/09 14:28:47;;;;;;;5.87;2.93;;;;;;;;;;5034635;28;20182;-65
2022/01/09 14:31:15;;;;;;;9.70;3.20;;;;;;;;;;5034405;28;20229;-67
2022/01/09 14:33:51;;;;;;;18.00;7.57;;;;;;;;;;5033157;28;20583;-66
2022/01/09 14:36:20;;;;;;;52.37;16.93;;;;;;;;;;5035923;28;20273;-67